sensor_id;sensor_type;location;lat;lon;timestamp;temperature;humidity
27848;DHT22;15212;48.830;8.730;2022-09-16T00:01:19;13.40;99.90
27848;DHT22;15212;48.830;8.730;2022-09-16T00:03:47;13.40;99.90
27848;DHT22;15212;48.830;8.730;2022-09-16T00:09:09;13.40;99.90
27848;DHT22;15212;48.830;8.730;2022-09-16T00:11:38;13.40;99.90
27848;DHT22;15212;48.830;8.730;2022-09-16T00:14:06;13.40;99.90
27848;DHT22;15212;48.830;8.730;2022-09-16T00:16:36;13.40;99.90
27848;DHT22;15212;48.830;8.730;2022-09-16T00:19:04;13.40;99.90
27848;DHT22;15212;48.830;8.730;2022-09-16T00:21:33;13.50;99.90
27848;DHT22;15212;48.830;8.730;2022-09-16T00:24:01;13.50;99.90
27848;DHT22;15212;48.830;8.730;2022-09-16T00:26:29;13.50;99.90
27848;DHT22;15212;48.830;8.730;2022-09-16T00:29:00;13.50;99.90
27848;DHT22;15212;48.830;8.730;2022-09-16T00:31:28;13.60;99.90
27848;DHT22;15212;48.830;8.730;2022-09-16T00:33:56;13.60;99.90
27848;DHT22;15212;48.830;8.730;2022-09-16T00:36:25;13.50;99.90
27848;DHT22;15212;48.830;8.730;2022-09-16T00:38:54;13.50;99.90
27848;DHT22;15212;48.830;8.730;2022-09-16T00:41:25;13.50;99.90
27848;DHT22;15212;48.830;8.730;2022-09-16T00:43:58;13.50;99.90
27848;DHT22;15212;48.830;8.730;2022-09-16T00:46:43;13.60;99.90
27848;DHT22;15212;48.830;8.730;2022-09-16T00:49:18;13.50;99.90
27848;DHT22;15212;48.830;8.730;2022-09-16T00:51:50;13.50;99.90
27848;DHT22;15212;48.830;8.730;2022-09-16T00:54:22;13.60;99.90
27848;DHT22;15212;48.830;8.730;2022-09-16T00:56:53;13.50;99.90
27848;DHT22;15212;48.830;8.730;2022-09-16T00:59:31;13.50;99.90
27848;DHT22;15212;48.830;8.730;2022-09-16T01:02:04;13.50;99.90
27848;DHT22;15212;48.830;8.730;2022-09-16T01:04:40;13.50;99.90
27848;DHT22;15212;48.830;8.730;2022-09-16T01:07:06;13.50;99.90
27848;DHT22;15212;48.830;8.730;2022-09-16T01:09:35;13.50;99.90
27848;DHT22;15212;48.830;8.730;2022-09-16T01:12:05;13.50;99.90
27848;DHT22;15212;48.830;8.730;2022-09-16T01:14:34;13.50;99.90
27848;DHT22;15212;48.830;8.730;2022-09-16T01:17:26;13.50;99.90
27848;DHT22;15212;48.830;8.730;2022-09-16T01:23:45;13.50;99.90
27848;DHT22;15212;48.830;8.730;2022-09-16T01:29:25;13.50;99.90
27848;DHT22;15212;48.830;8.730;2022-09-16T01:32:14;13.50;99.90
27848;DHT22;15212;48.830;8.730;2022-09-16T01:35:12;13.50;99.90
27848;DHT22;15212;48.830;8.730;2022-09-16T01:38:08;13.50;99.90
27848;DHT22;15212;48.830;8.730;2022-09-16T01:40:52;13.50;99.90
27848;DHT22;15212;48.830;8.730;2022-09-16T01:46:44;13.50;99.90
27848;DHT22;15212;48.830;8.730;2022-09-16T01:49:23;13.50;99.90
27848;DHT22;15212;48.830;8.730;2022-09-16T01:55:02;13.40;99.90
27848;DHT22;15212;48.830;8.730;2022-09-16T01:57:39;13.40;99.90
27848;DHT22;15212;48.830;8.730;2022-09-16T02:00:07;13.40;99.90
27848;DHT22;15212;48.830;8.730;2022-09-16T02:02:40;13.40;99.90
27848;DHT22;15212;48.830;8.730;2022-09-16T02:05:23;13.40;99.90
27848;DHT22;15212;48.830;8.730;2022-09-16T02:08:00;13.30;99.90
27848;DHT22;15212;48.830;8.730;2022-09-16T02:10:33;13.40;99.90
27848;DHT22;15212;48.830;8.730;2022-09-16T02:13:13;13.30;99.90
27848;DHT22;15212;48.830;8.730;2022-09-16T02:15:50;13.30;99.90
27848;DHT22;15212;48.830;8.730;2022-09-16T02:18:23;13.30;99.90
27848;DHT22;15212;48.830;8.730;2022-09-16T02:20:53;13.40;99.90
27848;DHT22;15212;48.830;8.730;2022-09-16T02:23:26;13.40;99.90
27848;DHT22;15212;48.830;8.730;2022-09-16T02:26:00;13.30;99.90
27848;DHT22;15212;48.830;8.730;2022-09-16T02:28:35;13.30;99.90
27848;DHT22;15212;48.830;8.730;2022-09-16T02:31:09;13.40;99.90
27848;DHT22;15212;48.830;8.730;2022-09-16T02:33:45;13.40;99.90
27848;DHT22;15212;48.830;8.730;2022-09-16T02:36:18;13.30;99.90
27848;DHT22;15212;48.830;8.730;2022-09-16T02:38:50;13.30;99.90
27848;DHT22;15212;48.830;8.730;2022-09-16T02:41:26;13.30;99.90
27848;DHT22;15212;48.830;8.730;2022-09-16T02:43:55;13.30;99.90
27848;DHT22;15212;48.830;8.730;2022-09-16T02:46:48;13.30;99.90
27848;DHT22;15212;48.830;8.730;2022-09-16T02:49:49;13.30;99.90
27848;DHT22;15212;48.830;8.730;2022-09-16T02:57:58;13.20;99.90
27848;DHT22;15212;48.830;8.730;2022-09-16T03:00:28;13.20;99.90
27848;DHT22;15212;48.830;8.730;2022-09-16T03:02:57;13.20;99.90
27848;DHT22;15212;48.830;8.730;2022-09-16T03:05:28;13.20;99.90
27848;DHT22;15212;48.830;8.730;2022-09-16T03:07:57;13.20;99.90
27848;DHT22;15212;48.830;8.730;2022-09-16T03:10:39;13.20;99.90
27848;DHT22;15212;48.830;8.730;2022-09-16T03:13:11;13.20;99.90
27848;DHT22;15212;48.830;8.730;2022-09-16T03:15:50;13.10;99.90
27848;DHT22;15212;48.830;8.730;2022-09-16T03:21:19;13.20;99.90
27848;DHT22;15212;48.830;8.730;2022-09-16T03:24:02;13.10;99.90
27848;DHT22;15212;48.830;8.730;2022-09-16T03:26:45;13.20;99.90
27848;DHT22;15212;48.830;8.730;2022-09-16T03:29:35;13.20;99.90
27848;DHT22;15212;48.830;8.730;2022-09-16T03:32:29;13.20;99.90
27848;DHT22;15212;48.830;8.730;2022-09-16T03:35:30;13.20;99.90
27848;DHT22;15212;48.830;8.730;2022-09-16T03:37:58;13.30;99.90
27848;DHT22;15212;48.830;8.730;2022-09-16T03:40:29;13.30;99.90
27848;DHT22;15212;48.830;8.730;2022-09-16T03:42:59;13.20;99.90
27848;DHT22;15212;48.830;8.730;2022-09-16T03:45:27;13.20;99.90
27848;DHT22;15212;48.830;8.730;2022-09-16T03:47:55;13.20;99.90
27848;DHT22;15212;48.830;8.730;2022-09-16T03:50:24;13.20;99.90
27848;DHT22;15212;48.830;8.730;2022-09-16T03:52:52;13.20;99.90
27848;DHT22;15212;48.830;8.730;2022-09-16T03:55:20;13.20;99.90
27848;DHT22;15212;48.830;8.730;2022-09-16T03:57:49;13.10;99.90
27848;DHT22;15212;48.830;8.730;2022-09-16T04:00:20;13.20;99.90
27848;DHT22;15212;48.830;8.730;2022-09-16T04:02:49;13.20;99.90
27848;DHT22;15212;48.830;8.730;2022-09-16T04:05:17;13.10;99.90
27848;DHT22;15212;48.830;8.730;2022-09-16T04:07:48;13.10;99.90
27848;DHT22;15212;48.830;8.730;2022-09-16T04:10:17;13.00;99.90
27848;DHT22;15212;48.830;8.730;2022-09-16T04:12:45;13.10;99.90
27848;DHT22;15212;48.830;8.730;2022-09-16T04:15:14;13.10;99.90
27848;DHT22;15212;48.830;8.730;2022-09-16T04:17:42;13.10;99.90
27848;DHT22;15212;48.830;8.730;2022-09-16T04:20:11;13.00;99.90
27848;DHT22;15212;48.830;8.730;2022-09-16T04:22:39;13.10;99.90
27848;DHT22;15212;48.830;8.730;2022-09-16T04:25:08;13.10;99.90
27848;DHT22;15212;48.830;8.730;2022-09-16T04:27:36;13.10;99.90
27848;DHT22;15212;48.830;8.730;2022-09-16T04:30:06;13.10;99.90
27848;DHT22;15212;48.830;8.730;2022-09-16T04:32:35;13.00;99.90
27848;DHT22;15212;48.830;8.730;2022-09-16T04:35:04;13.10;99.90
27848;DHT22;15212;48.830;8.730;2022-09-16T04:37:33;13.10;99.90
27848;DHT22;15212;48.830;8.730;2022-09-16T04:40:01;13.00;99.90
27848;DHT22;15212;48.830;8.730;2022-09-16T04:42:30;13.00;99.90
27848;DHT22;15212;48.830;8.730;2022-09-16T04:44:58;13.00;99.90
27848;DHT22;15212;48.830;8.730;2022-09-16T04:47:27;13.00;99.90
27848;DHT22;15212;48.830;8.730;2022-09-16T04:49:55;13.00;99.90
27848;DHT22;15212;48.830;8.730;2022-09-16T04:52:24;12.90;99.90
27848;DHT22;15212;48.830;8.730;2022-09-16T04:54:52;13.00;99.90
27848;DHT22;15212;48.830;8.730;2022-09-16T04:57:20;12.90;99.90
27848;DHT22;15212;48.830;8.730;2022-09-16T04:59:49;12.90;99.90
27848;DHT22;15212;48.830;8.730;2022-09-16T05:02:17;12.80;99.90
27848;DHT22;15212;48.830;8.730;2022-09-16T05:04:46;12.80;99.90
27848;DHT22;15212;48.830;8.730;2022-09-16T05:07:14;12.80;99.90
27848;DHT22;15212;48.830;8.730;2022-09-16T05:09:43;12.80;99.90
27848;DHT22;15212;48.830;8.730;2022-09-16T05:12:11;12.70;99.90
27848;DHT22;15212;48.830;8.730;2022-09-16T05:14:40;12.80;99.90
27848;DHT22;15212;48.830;8.730;2022-09-16T05:17:08;12.80;99.90
27848;DHT22;15212;48.830;8.730;2022-09-16T05:19:36;12.70;99.90
27848;DHT22;15212;48.830;8.730;2022-09-16T05:22:05;12.70;99.90
27848;DHT22;15212;48.830;8.730;2022-09-16T05:24:34;12.70;99.90
27848;DHT22;15212;48.830;8.730;2022-09-16T05:27:02;12.70;99.90
27848;DHT22;15212;48.830;8.730;2022-09-16T05:29:31;12.70;99.90
27848;DHT22;15212;48.830;8.730;2022-09-16T05:31:59;12.70;99.90
27848;DHT22;15212;48.830;8.730;2022-09-16T05:34:27;12.70;99.90
27848;DHT22;15212;48.830;8.730;2022-09-16T05:36:56;12.70;99.90
27848;DHT22;15212;48.830;8.730;2022-09-16T05:39:25;12.70;99.90
27848;DHT22;15212;48.830;8.730;2022-09-16T05:41:56;12.70;99.90
27848;DHT22;15212;48.830;8.730;2022-09-16T05:44:26;12.60;99.90
27848;DHT22;15212;48.830;8.730;2022-09-16T05:46:55;12.60;99.90
27848;DHT22;15212;48.830;8.730;2022-09-16T05:49:24;12.60;99.90
27848;DHT22;15212;48.830;8.730;2022-09-16T05:51:53;12.60;99.90
27848;DHT22;15212;48.830;8.730;2022-09-16T05:54:22;12.60;99.90
27848;DHT22;15212;48.830;8.730;2022-09-16T05:56:51;12.60;99.90
27848;DHT22;15212;48.830;8.730;2022-09-16T05:59:19;12.70;99.90
27848;DHT22;15212;48.830;8.730;2022-09-16T06:01:49;12.60;99.90
27848;DHT22;15212;48.830;8.730;2022-09-16T06:04:17;12.60;99.90
27848;DHT22;15212;48.830;8.730;2022-09-16T06:06:46;12.60;99.90
27848;DHT22;15212;48.830;8.730;2022-09-16T06:09:20;12.60;99.90
27848;DHT22;15212;48.830;8.730;2022-09-16T06:11:51;12.60;99.90
27848;DHT22;15212;48.830;8.730;2022-09-16T06:14:20;12.60;99.90
27848;DHT22;15212;48.830;8.730;2022-09-16T06:16:49;12.60;99.90
27848;DHT22;15212;48.830;8.730;2022-09-16T06:19:18;12.60;99.90
27848;DHT22;15212;48.830;8.730;2022-09-16T06:21:46;12.60;99.90
27848;DHT22;15212;48.830;8.730;2022-09-16T06:24:16;12.60;99.90
27848;DHT22;15212;48.830;8.730;2022-09-16T06:26:45;12.60;99.90
27848;DHT22;15212;48.830;8.730;2022-09-16T06:29:15;12.60;99.90
27848;DHT22;15212;48.830;8.730;2022-09-16T06:31:44;12.60;99.90
27848;DHT22;15212;48.830;8.730;2022-09-16T06:34:14;12.60;99.90
27848;DHT22;15212;48.830;8.730;2022-09-16T06:36:45;12.60;99.90
27848;DHT22;15212;48.830;8.730;2022-09-16T06:39:15;12.60;99.90
27848;DHT22;15212;48.830;8.730;2022-09-16T06:41:43;12.50;99.90
27848;DHT22;15212;48.830;8.730;2022-09-16T06:44:12;12.50;99.90
27848;DHT22;15212;48.830;8.730;2022-09-16T06:46:40;12.50;99.90
27848;DHT22;15212;48.830;8.730;2022-09-16T06:49:09;12.40;99.90
27848;DHT22;15212;48.830;8.730;2022-09-16T06:51:38;12.40;99.90
27848;DHT22;15212;48.830;8.730;2022-09-16T06:54:08;12.40;99.90
27848;DHT22;15212;48.830;8.730;2022-09-16T06:56:37;12.40;99.90
27848;DHT22;15212;48.830;8.730;2022-09-16T06:59:08;12.30;99.90
27848;DHT22;15212;48.830;8.730;2022-09-16T07:01:38;12.30;99.90
27848;DHT22;15212;48.830;8.730;2022-09-16T07:04:09;12.20;99.90
27848;DHT22;15212;48.830;8.730;2022-09-16T07:06:39;12.20;99.90
27848;DHT22;15212;48.830;8.730;2022-09-16T07:09:07;12.20;99.90
27848;DHT22;15212;48.830;8.730;2022-09-16T07:11:35;12.20;99.90
27848;DHT22;15212;48.830;8.730;2022-09-16T07:14:06;12.10;99.90
27848;DHT22;15212;48.830;8.730;2022-09-16T07:16:35;12.10;99.90
27848;DHT22;15212;48.830;8.730;2022-09-16T07:19:04;12.00;99.90
27848;DHT22;15212;48.830;8.730;2022-09-16T07:21:32;12.00;99.90
27848;DHT22;15212;48.830;8.730;2022-09-16T07:24:02;12.00;99.90
27848;DHT22;15212;48.830;8.730;2022-09-16T07:26:33;12.10;99.90
27848;DHT22;15212;48.830;8.730;2022-09-16T07:29:04;12.10;99.90
27848;DHT22;15212;48.830;8.730;2022-09-16T07:31:35;12.20;99.90
27848;DHT22;15212;48.830;8.730;2022-09-16T07:34:05;12.30;99.90
27848;DHT22;15212;48.830;8.730;2022-09-16T07:36:37;12.30;99.90
27848;DHT22;15212;48.830;8.730;2022-09-16T07:39:11;12.30;99.90
27848;DHT22;15212;48.830;8.730;2022-09-16T07:41:42;12.30;99.90
27848;DHT22;15212;48.830;8.730;2022-09-16T07:44:13;12.30;99.90
27848;DHT22;15212;48.830;8.730;2022-09-16T07:46:43;12.30;99.90
27848;DHT22;15212;48.830;8.730;2022-09-16T07:49:13;12.30;99.90
27848;DHT22;15212;48.830;8.730;2022-09-16T07:51:42;12.30;99.90
27848;DHT22;15212;48.830;8.730;2022-09-16T07:54:14;12.30;99.90
27848;DHT22;15212;48.830;8.730;2022-09-16T07:56:43;12.30;99.90
27848;DHT22;15212;48.830;8.730;2022-09-16T07:59:17;12.30;99.90
27848;DHT22;15212;48.830;8.730;2022-09-16T08:01:47;12.30;99.90
27848;DHT22;15212;48.830;8.730;2022-09-16T08:04:17;12.40;99.90
27848;DHT22;15212;48.830;8.730;2022-09-16T08:06:46;12.40;99.90
27848;DHT22;15212;48.830;8.730;2022-09-16T08:09:14;12.50;99.90
27848;DHT22;15212;48.830;8.730;2022-09-16T08:11:43;12.60;99.90
27848;DHT22;15212;48.830;8.730;2022-09-16T08:14:11;12.60;99.90
27848;DHT22;15212;48.830;8.730;2022-09-16T08:16:39;12.50;99.90
27848;DHT22;15212;48.830;8.730;2022-09-16T08:19:08;12.50;99.90
27848;DHT22;15212;48.830;8.730;2022-09-16T08:21:37;12.50;99.90
27848;DHT22;15212;48.830;8.730;2022-09-16T08:24:06;12.50;99.90
27848;DHT22;15212;48.830;8.730;2022-09-16T08:26:35;12.60;99.90
27848;DHT22;15212;48.830;8.730;2022-09-16T08:29:03;12.60;99.90
27848;DHT22;15212;48.830;8.730;2022-09-16T08:31:32;12.70;99.90
27848;DHT22;15212;48.830;8.730;2022-09-16T08:34:01;12.70;99.90
27848;DHT22;15212;48.830;8.730;2022-09-16T08:36:29;12.80;99.90
27848;DHT22;15212;48.830;8.730;2022-09-16T08:38:59;12.80;99.90
27848;DHT22;15212;48.830;8.730;2022-09-16T08:44:56;12.80;99.90
27848;DHT22;15212;48.830;8.730;2022-09-16T08:48:06;12.90;99.90
27848;DHT22;15212;48.830;8.730;2022-09-16T08:50:52;12.80;99.90
27848;DHT22;15212;48.830;8.730;2022-09-16T08:53:33;12.80;99.90
27848;DHT22;15212;48.830;8.730;2022-09-16T08:56:05;12.80;99.90
27848;DHT22;15212;48.830;8.730;2022-09-16T08:58:44;12.80;99.90
27848;DHT22;15212;48.830;8.730;2022-09-16T09:01:35;12.90;99.90
27848;DHT22;15212;48.830;8.730;2022-09-16T09:04:05;12.90;99.90
27848;DHT22;15212;48.830;8.730;2022-09-16T09:07:04;12.90;99.90
27848;DHT22;15212;48.830;8.730;2022-09-16T09:10:39;13.00;99.90
27848;DHT22;15212;48.830;8.730;2022-09-16T09:12:42;13.00;99.90
27848;DHT22;15212;48.830;8.730;2022-09-16T09:21:12;13.40;99.90
27848;DHT22;15212;48.830;8.730;2022-09-16T09:24:07;13.60;99.90
27848;DHT22;15212;48.830;8.730;2022-09-16T09:26:49;13.70;99.90
27848;DHT22;15212;48.830;8.730;2022-09-16T09:29:29;13.70;99.90
27848;DHT22;15212;48.830;8.730;2022-09-16T09:32:20;13.70;99.90
27848;DHT22;15212;48.830;8.730;2022-09-16T09:35:20;13.80;99.90
27848;DHT22;15212;48.830;8.730;2022-09-16T09:40:51;13.70;99.90
27848;DHT22;15212;48.830;8.730;2022-09-16T09:43:24;13.60;99.90
27848;DHT22;15212;48.830;8.730;2022-09-16T09:48:40;13.50;99.90
27848;DHT22;15212;48.830;8.730;2022-09-16T09:51:16;13.50;99.90
27848;DHT22;15212;48.830;8.730;2022-09-16T09:54:19;13.50;99.90
27848;DHT22;15212;48.830;8.730;2022-09-16T09:56:39;13.40;99.90
27848;DHT22;15212;48.830;8.730;2022-09-16T09:59:45;13.30;99.90
27848;DHT22;15212;48.830;8.730;2022-09-16T10:02:17;13.20;99.90
27848;DHT22;15212;48.830;8.730;2022-09-16T10:04:48;13.20;99.90
27848;DHT22;15212;48.830;8.730;2022-09-16T10:07:22;13.20;99.90
27848;DHT22;15212;48.830;8.730;2022-09-16T10:10:04;13.20;99.90
27848;DHT22;15212;48.830;8.730;2022-09-16T10:12:40;13.10;99.90
27848;DHT22;15212;48.830;8.730;2022-09-16T10:15:26;13.00;99.90
27848;DHT22;15212;48.830;8.730;2022-09-16T10:17:59;12.90;99.90
27848;DHT22;15212;48.830;8.730;2022-09-16T10:20:37;12.80;99.90
27848;DHT22;15212;48.830;8.730;2022-09-16T10:23:14;12.90;99.90
27848;DHT22;15212;48.830;8.730;2022-09-16T10:25:44;12.80;99.90
27848;DHT22;15212;48.830;8.730;2022-09-16T10:28:24;12.80;99.90
27848;DHT22;15212;48.830;8.730;2022-09-16T10:30:54;12.80;99.90
27848;DHT22;15212;48.830;8.730;2022-09-16T10:33:41;12.90;99.90
27848;DHT22;15212;48.830;8.730;2022-09-16T10:36:10;13.00;99.90
27848;DHT22;15212;48.830;8.730;2022-09-16T10:38:50;12.90;99.90
27848;DHT22;15212;48.830;8.730;2022-09-16T10:41:26;13.00;99.90
27848;DHT22;15212;48.830;8.730;2022-09-16T10:44:00;12.90;99.90
27848;DHT22;15212;48.830;8.730;2022-09-16T10:46:30;12.90;99.90
27848;DHT22;15212;48.830;8.730;2022-09-16T10:49:10;12.90;99.90
27848;DHT22;15212;48.830;8.730;2022-09-16T10:51:32;12.80;99.90
27848;DHT22;15212;48.830;8.730;2022-09-16T10:54:03;12.70;99.90
27848;DHT22;15212;48.830;8.730;2022-09-16T10:56:34;12.60;99.90
27848;DHT22;15212;48.830;8.730;2022-09-16T10:59:09;12.60;99.90
27848;DHT22;15212;48.830;8.730;2022-09-16T11:01:57;12.60;99.90
27848;DHT22;15212;48.830;8.730;2022-09-16T11:07:26;12.60;99.90
27848;DHT22;15212;48.830;8.730;2022-09-16T11:27:09;12.70;99.90
27848;DHT22;15212;48.830;8.730;2022-09-16T11:30:07;12.80;99.90
27848;DHT22;15212;48.830;8.730;2022-09-16T11:39:10;13.10;99.90
27848;DHT22;15212;48.830;8.730;2022-09-16T11:41:58;13.20;99.90
27848;DHT22;15212;48.830;8.730;2022-09-16T11:44:50;13.30;99.90
27848;DHT22;15212;48.830;8.730;2022-09-16T11:50:47;13.50;99.90
27848;DHT22;15212;48.830;8.730;2022-09-16T11:53:54;13.60;99.90
27848;DHT22;15212;48.830;8.730;2022-09-16T11:57:23;13.70;99.90
27848;DHT22;15212;48.830;8.730;2022-09-16T11:59:25;14.00;99.90
27848;DHT22;15212;48.830;8.730;2022-09-16T12:02:01;14.20;99.90
27848;DHT22;15212;48.830;8.730;2022-09-16T12:04:41;14.40;99.90
27848;DHT22;15212;48.830;8.730;2022-09-16T12:07:24;14.60;99.90
27848;DHT22;15212;48.830;8.730;2022-09-16T12:10:13;14.70;99.90
27848;DHT22;15212;48.830;8.730;2022-09-16T12:13:54;14.80;99.90
27848;DHT22;15212;48.830;8.730;2022-09-16T12:16:07;14.90;99.90
27848;DHT22;15212;48.830;8.730;2022-09-16T12:18:44;15.00;99.90
27848;DHT22;15212;48.830;8.730;2022-09-16T12:21:34;14.80;99.90
27848;DHT22;15212;48.830;8.730;2022-09-16T12:24:16;14.80;99.90
27848;DHT22;15212;48.830;8.730;2022-09-16T12:27:24;14.80;99.90
27848;DHT22;15212;48.830;8.730;2022-09-16T12:30:07;14.80;99.90
27848;DHT22;15212;48.830;8.730;2022-09-16T12:32:54;14.80;99.90
27848;DHT22;15212;48.830;8.730;2022-09-16T12:35:33;15.00;99.90
27848;DHT22;15212;48.830;8.730;2022-09-16T12:38:03;15.10;99.90
27848;DHT22;15212;48.830;8.730;2022-09-16T12:40:57;15.20;99.90
27848;DHT22;15212;48.830;8.730;2022-09-16T12:43:54;15.40;99.90
27848;DHT22;15212;48.830;8.730;2022-09-16T12:49:44;15.40;99.90
27848;DHT22;15212;48.830;8.730;2022-09-16T12:52:22;15.50;99.90
27848;DHT22;15212;48.830;8.730;2022-09-16T12:55:01;15.60;99.90
27848;DHT22;15212;48.830;8.730;2022-09-16T13:01:27;15.50;99.90
27848;DHT22;15212;48.830;8.730;2022-09-16T13:04:00;15.20;99.90
27848;DHT22;15212;48.830;8.730;2022-09-16T13:06:44;15.00;99.90
27848;DHT22;15212;48.830;8.730;2022-09-16T13:09:32;15.10;99.90
27848;DHT22;15212;48.830;8.730;2022-09-16T13:12:24;15.20;99.90
27848;DHT22;15212;48.830;8.730;2022-09-16T13:14:58;15.40;99.90
27848;DHT22;15212;48.830;8.730;2022-09-16T13:17:32;15.40;99.90
27848;DHT22;15212;48.830;8.730;2022-09-16T13:20:16;15.30;99.90
27848;DHT22;15212;48.830;8.730;2022-09-16T13:25:28;15.40;99.90
27848;DHT22;15212;48.830;8.730;2022-09-16T13:28:21;15.20;99.90
27848;DHT22;15212;48.830;8.730;2022-09-16T13:30:52;15.30;99.90
27848;DHT22;15212;48.830;8.730;2022-09-16T13:33:23;15.50;99.90
27848;DHT22;15212;48.830;8.730;2022-09-16T13:36:12;15.60;99.90
27848;DHT22;15212;48.830;8.730;2022-09-16T13:38:53;15.70;99.90
27848;DHT22;15212;48.830;8.730;2022-09-16T13:41:46;15.60;99.90
27848;DHT22;15212;48.830;8.730;2022-09-16T13:52:32;15.60;99.90
27848;DHT22;15212;48.830;8.730;2022-09-16T13:55:04;15.60;99.90
27848;DHT22;15212;48.830;8.730;2022-09-16T14:00:24;15.60;99.90
27848;DHT22;15212;48.830;8.730;2022-09-16T14:03:41;15.70;99.90
27848;DHT22;15212;48.830;8.730;2022-09-16T14:09:27;15.80;99.90
27848;DHT22;15212;48.830;8.730;2022-09-16T14:14:36;15.80;99.90
27848;DHT22;15212;48.830;8.730;2022-09-16T14:17:13;15.80;99.90
27848;DHT22;15212;48.830;8.730;2022-09-16T14:19:51;15.70;99.90
27848;DHT22;15212;48.830;8.730;2022-09-16T14:22:22;15.70;99.90
27848;DHT22;15212;48.830;8.730;2022-09-16T14:24:53;15.70;99.90
27848;DHT22;15212;48.830;8.730;2022-09-16T14:27:33;15.50;99.90
27848;DHT22;15212;48.830;8.730;2022-09-16T14:30:14;15.60;99.90
27848;DHT22;15212;48.830;8.730;2022-09-16T14:32:45;15.60;99.90
27848;DHT22;15212;48.830;8.730;2022-09-16T14:35:19;15.60;99.90
27848;DHT22;15212;48.830;8.730;2022-09-16T14:37:55;15.50;99.90
27848;DHT22;15212;48.830;8.730;2022-09-16T14:40:26;15.40;99.90
27848;DHT22;15212;48.830;8.730;2022-09-16T14:43:13;15.40;99.90
27848;DHT22;15212;48.830;8.730;2022-09-16T14:45:51;15.70;99.90
27848;DHT22;15212;48.830;8.730;2022-09-16T14:48:17;16.00;99.90
27848;DHT22;15212;48.830;8.730;2022-09-16T14:50:48;16.20;99.90
27848;DHT22;15212;48.830;8.730;2022-09-16T14:53:31;16.30;99.90
27848;DHT22;15212;48.830;8.730;2022-09-16T14:56:02;16.20;99.90
27848;DHT22;15212;48.830;8.730;2022-09-16T14:58:32;16.20;99.90
27848;DHT22;15212;48.830;8.730;2022-09-16T15:01:10;16.10;99.90
27848;DHT22;15212;48.830;8.730;2022-09-16T15:03:46;16.20;99.90
27848;DHT22;15212;48.830;8.730;2022-09-16T15:06:16;16.20;99.90
27848;DHT22;15212;48.830;8.730;2022-09-16T15:08:51;16.40;99.90
27848;DHT22;15212;48.830;8.730;2022-09-16T15:11:25;16.50;99.90
27848;DHT22;15212;48.830;8.730;2022-09-16T15:13:54;16.50;99.90
27848;DHT22;15212;48.830;8.730;2022-09-16T15:16:23;16.30;99.90
27848;DHT22;15212;48.830;8.730;2022-09-16T15:19:03;16.20;99.90
27848;DHT22;15212;48.830;8.730;2022-09-16T15:21:34;16.30;99.90
27848;DHT22;15212;48.830;8.730;2022-09-16T15:24:13;16.20;99.90
27848;DHT22;15212;48.830;8.730;2022-09-16T15:26:39;16.00;99.90
27848;DHT22;15212;48.830;8.730;2022-09-16T15:31:49;15.60;99.90
27848;DHT22;15212;48.830;8.730;2022-09-16T15:34:20;15.50;99.90
27848;DHT22;15212;48.830;8.730;2022-09-16T15:36:52;15.50;99.90
27848;DHT22;15212;48.830;8.730;2022-09-16T15:39:29;15.50;99.90
27848;DHT22;15212;48.830;8.730;2022-09-16T15:42:15;15.40;99.90
27848;DHT22;15212;48.830;8.730;2022-09-16T15:44:58;15.30;99.90
27848;DHT22;15212;48.830;8.730;2022-09-16T15:47:30;15.40;99.90
27848;DHT22;15212;48.830;8.730;2022-09-16T15:50:08;15.50;99.90
27848;DHT22;15212;48.830;8.730;2022-09-16T15:55:39;15.30;99.90
27848;DHT22;15212;48.830;8.730;2022-09-16T15:58:31;15.20;99.90
27848;DHT22;15212;48.830;8.730;2022-09-16T16:01:05;15.00;99.90
27848;DHT22;15212;48.830;8.730;2022-09-16T16:03:58;14.80;99.90
27848;DHT22;15212;48.830;8.730;2022-09-16T16:06:46;14.70;99.90
27848;DHT22;15212;48.830;8.730;2022-09-16T16:09:31;14.70;99.90
27848;DHT22;15212;48.830;8.730;2022-09-16T16:12:06;14.60;99.90
27848;DHT22;15212;48.830;8.730;2022-09-16T16:14:37;14.50;99.90
27848;DHT22;15212;48.830;8.730;2022-09-16T16:17:16;14.50;99.90
27848;DHT22;15212;48.830;8.730;2022-09-16T16:19:49;14.40;99.90
27848;DHT22;15212;48.830;8.730;2022-09-16T16:22:17;14.40;99.90
27848;DHT22;15212;48.830;8.730;2022-09-16T16:24:45;14.40;99.90
27848;DHT22;15212;48.830;8.730;2022-09-16T16:27:14;14.30;99.90
27848;DHT22;15212;48.830;8.730;2022-09-16T16:29:42;14.30;99.90
27848;DHT22;15212;48.830;8.730;2022-09-16T16:32:13;14.20;99.90
27848;DHT22;15212;48.830;8.730;2022-09-16T16:34:48;14.10;99.90
27848;DHT22;15212;48.830;8.730;2022-09-16T16:37:17;14.00;99.90
27848;DHT22;15212;48.830;8.730;2022-09-16T16:39:47;14.00;99.90
27848;DHT22;15212;48.830;8.730;2022-09-16T16:42:15;13.90;99.90
27848;DHT22;15212;48.830;8.730;2022-09-16T16:44:44;13.90;99.90
27848;DHT22;15212;48.830;8.730;2022-09-16T16:47:12;13.80;99.90
27848;DHT22;15212;48.830;8.730;2022-09-16T16:49:41;13.80;99.90
27848;DHT22;15212;48.830;8.730;2022-09-16T16:52:09;13.70;99.90
27848;DHT22;15212;48.830;8.730;2022-09-16T16:54:38;13.70;99.90
27848;DHT22;15212;48.830;8.730;2022-09-16T16:57:09;13.60;99.90
27848;DHT22;15212;48.830;8.730;2022-09-16T16:59:37;13.50;99.90
27848;DHT22;15212;48.830;8.730;2022-09-16T17:02:07;13.40;99.90
27848;DHT22;15212;48.830;8.730;2022-09-16T17:04:36;13.40;99.90
27848;DHT22;15212;48.830;8.730;2022-09-16T17:07:05;13.40;99.90
27848;DHT22;15212;48.830;8.730;2022-09-16T17:09:33;13.40;99.90
27848;DHT22;15212;48.830;8.730;2022-09-16T17:12:02;13.20;99.90
27848;DHT22;15212;48.830;8.730;2022-09-16T17:14:31;13.20;99.90
27848;DHT22;15212;48.830;8.730;2022-09-16T17:16:59;13.10;99.90
27848;DHT22;15212;48.830;8.730;2022-09-16T17:19:28;13.00;99.90
27848;DHT22;15212;48.830;8.730;2022-09-16T17:21:57;13.00;99.90
27848;DHT22;15212;48.830;8.730;2022-09-16T17:24:26;12.90;99.90
27848;DHT22;15212;48.830;8.730;2022-09-16T17:26:54;12.80;99.90
27848;DHT22;15212;48.830;8.730;2022-09-16T17:29:22;12.70;99.90
27848;DHT22;15212;48.830;8.730;2022-09-16T17:31:51;12.60;99.90
27848;DHT22;15212;48.830;8.730;2022-09-16T17:34:21;12.60;99.90
27848;DHT22;15212;48.830;8.730;2022-09-16T17:36:51;12.60;99.90
27848;DHT22;15212;48.830;8.730;2022-09-16T17:39:21;12.60;99.90
27848;DHT22;15212;48.830;8.730;2022-09-16T17:41:49;12.50;99.90
27848;DHT22;15212;48.830;8.730;2022-09-16T17:44:18;12.50;99.90
27848;DHT22;15212;48.830;8.730;2022-09-16T17:46:46;12.50;99.90
27848;DHT22;15212;48.830;8.730;2022-09-16T17:49:17;12.40;99.90
27848;DHT22;15212;48.830;8.730;2022-09-16T17:51:47;12.40;99.90
27848;DHT22;15212;48.830;8.730;2022-09-16T17:54:16;12.30;99.90
27848;DHT22;15212;48.830;8.730;2022-09-16T17:56:45;12.30;99.90